Time;durP1;ratioP1;P1;durP2;ratioP2;P2;SDS_P1;SDS_P2;PMS_P1;PMS_P2;Temp;Humidity;BMP_temperature;BMP_pressure;BME280_temperature;BME280_humidity;BME280_pressure;Samples;Min_cycle;Max_cycle;Signal;HPM_P1;HPM_P2
2021/10/24 00:01:20;;;;;;;;;18.00;18.00;;;;;-147.17;100.00;49647.22;5065476;28;50897;-81
2021/10/24 00:03:46;;;;;;;;;18.50;18.00;;;;;-147.17;100.00;49696.41;5064902;28;52101;-79
2021/10/24 00:06:11;;;;;;;;;18.00;16.25;;;;;-147.17;100.00;49635.41;5070020;28;53939;-77
2021/10/24 00:08:37;;;;;;;;;18.50;18.50;;;;;-147.17;100.00;49582.25;5059545;28;51440;-73
2021/10/24 00:11:03;;;;;;;;;18.75;17.00;;;;;-147.17;100.00;49588.16;5053769;28;51434;-73
2021/10/24 00:13:29;;;;;;;;;22.50;21.25;;;;;-147.17;100.00;49566.50;5062089;28;51143;-76
2021/10/24 00:15:56;;;;;;;;;17.75;16.75;;;;;-147.17;100.00;49576.34;5043303;28;51165;-77
2021/10/24 00:18:21;;;;;;;;;18.75;18.75;;;;;-147.17;100.00;49542.91;5075441;28;51293;-81
2021/10/24 00:20:47;;;;;;;;;20.00;19.25;;;;;-147.17;100.00;49588.16;5046687;28;51051;-80
2021/10/24 00:23:14;;;;;;;;;18.00;17.25;;;;;-147.17;100.00;49529.13;5044116;28;51842;-78
2021/10/24 00:25:39;;;;;;;;;22.00;20.00;;;;;-147.17;100.00;49519.28;5060664;28;51140;-76
2021/10/24 00:28:05;;;;;;;;;21.75;19.25;;;;;-147.17;100.00;49617.69;5066157;28;51082;-77
2021/10/24 00:30:30;;;;;;;;;17.50;16.75;;;;;-147.17;100.00;49598.00;5070165;28;51222;-78
2021/10/24 00:32:56;;;;;;;;;18.00;17.75;;;;;-147.17;100.00;49651.16;5060650;28;51760;-77
2021/10/24 00:35:21;;;;;;;;;21.50;18.75;;;;;-147.17;100.00;49560.59;5053404;28;51278;-74
2021/10/24 00:37:47;;;;;;;;;19.75;19.00;;;;;-147.17;100.00;49560.59;5055359;28;52648;-75
2021/10/24 00:40:12;;;;;;;;;17.00;16.75;;;;;-147.17;100.00;49554.69;5054698;28;51478;-77
2021/10/24 00:42:49;;;;;;;;;19.50;18.75;;;;;-147.17;100.00;49566.50;5054109;28;51609;-76
2021/10/24 00:45:15;;;;;;;;;17.00;16.25;;;;;-147.17;100.00;49544.88;5054308;28;51226;-77
2021/10/24 00:47:40;;;;;;;;;17.50;17.50;;;;;-147.17;100.00;49605.88;5042089;28;52512;-80
2021/10/24 00:50:06;;;;;;;;;19.50;18.00;;;;;-147.17;100.00;49538.97;5063742;28;53334;-78
2021/10/24 00:52:32;;;;;;;;;16.50;16.00;;;;;-147.17;100.00;49566.50;5060087;28;52059;-76
2021/10/24 00:54:57;;;;;;;;;18.25;17.00;;;;;-147.17;100.00;49538.97;5054696;28;51534;-78
2021/10/24 00:57:23;;;;;;;;;15.50;15.00;;;;;-147.17;100.00;49544.88;5036834;28;51558;-79
2021/10/24 00:59:49;;;;;;;;;21.75;21.25;;;;;-147.17;100.00;49635.41;5035438;28;51137;-75
2021/10/24 01:02:14;;;;;;;;;18.25;18.00;;;;;-147.17;100.00;49653.13;5057240;28;52805;-76
2021/10/24 01:04:40;;;;;;;;;17.75;15.50;;;;;-147.17;100.00;49592.09;5055135;28;51252;-76
2021/10/24 01:07:06;;;;;;;;;15.50;14.75;;;;;-147.17;100.00;49655.09;5037445;28;51636;-76
2021/10/24 01:09:33;;;;;;;;;17.25;16.00;;;;;-147.17;100.00;49643.28;5039292;28;52949;-75
2021/10/24 01:11:59;;;;;;;;;18.00;17.25;;;;;-147.17;100.00;49631.47;5057826;28;51801;-76
2021/10/24 01:14:26;;;;;;;;;16.00;16.00;;;;;-147.17;100.00;49619.66;5054291;28;51173;-75
2021/10/24 01:16:51;;;;;;;;;17.50;16.50;;;;;-147.17;100.00;49659.03;5062187;28;51222;-75
2021/10/24 01:19:18;;;;;;;;;16.00;15.25;;;;;-147.17;100.00;49641.31;5055725;28;51682;-75
2021/10/24 01:21:43;;;;;;;;;14.50;14.25;;;;;-147.17;100.00;49592.09;5051652;28;52814;-75
2021/10/24 01:24:09;;;;;;;;;12.75;12.75;;;;;-147.17;100.00;49560.59;5064969;28;51177;-74
2021/10/24 01:26:35;;;;;;;;;13.00;13.00;;;;;-147.17;100.00;49540.94;5053213;28;52027;-76
2021/10/24 01:29:02;;;;;;;;;15.50;14.50;;;;;-147.17;100.00;49590.13;5033380;28;51308;-77
2021/10/24 01:31:27;;;;;;;;;15.50;11.75;;;;;-147.17;100.00;49596.03;5062956;28;51885;-76
2021/10/24 01:33:52;;;;;;;;;15.00;15.00;;;;;-147.17;100.00;49651.16;5060972;28;51088;-73
2021/10/24 01:36:18;;;;;;;;;19.00;15.00;;;;;-147.17;100.00;49625.56;5037303;28;51468;-77
2021/10/24 01:38:45;;;;;;;;;16.25;15.25;;;;;-147.17;100.00;49584.22;5032435;28;51919;-77
2021/10/24 01:41:11;;;;;;;;;15.25;15.25;;;;;-147.17;100.00;49684.59;5058377;28;52752;-79
2021/10/24 01:43:37;;;;;;;;;13.75;12.75;;;;;-147.17;100.00;49649.19;5054635;28;51183;-75
2021/10/24 01:46:03;;;;;;;;;15.00;15.00;;;;;-147.17;100.00;49615.72;5053845;28;51628;-77
2021/10/24 01:48:29;;;;;;;;;14.00;14.00;;;;;-147.17;100.00;49637.38;5056916;28;51814;-78
2021/10/24 01:50:56;;;;;;;;;15.00;15.00;;;;;-147.17;100.00;49674.75;5050631;28;51278;-76
2021/10/24 01:53:25;;;;;;;;;16.00;14.75;;;;;-147.17;100.00;49710.19;5051080;28;51452;-76
2021/10/24 01:55:50;;;;;;;;;16.00;16.00;;;;;-147.17;100.00;49696.41;5057923;28;51172;-77
2021/10/24 01:58:16;;;;;;;;;16.25;14.75;;;;;-147.17;100.00;49625.56;5050353;28;51313;-78
2021/10/24 02:00:45;;;;;;;;;15.75;15.00;;;;;-147.17;100.00;49623.59;5056771;28;52647;-76
2021/10/24 02:03:12;;;;;;;;;15.75;14.75;;;;;-147.17;100.00;49619.66;5062119;28;52495;-76
2021/10/24 02:05:38;;;;;;;;;14.00;14.00;;;;;-147.17;100.00;49592.09;5053804;28;52498;-77
2021/10/24 02:08:04;;;;;;;;;13.25;12.50;;;;;-147.17;100.00;49607.84;5052730;28;51168;-73
2021/10/24 02:10:30;;;;;;;;;14.00;13.00;;;;;-147.17;100.00;49599.97;5031755;28;51960;-74
2021/10/24 02:12:55;;;;;;;;;13.75;13.75;;;;;-147.17;100.00;49631.47;5053863;28;51873;-76
2021/10/24 02:15:22;;;;;;;;;13.00;12.50;;;;;-147.17;100.00;49627.53;5053530;28;51216;-76
2021/10/24 02:17:47;;;;;;;;;14.75;14.00;;;;;-147.17;100.00;49588.16;5051050;28;51425;-77
2021/10/24 02:20:13;;;;;;;;;15.50;15.00;;;;;-147.17;100.00;49596.03;5055040;28;51700;-76
2021/10/24 02:22:39;;;;;;;;;12.00;11.75;;;;;-147.17;100.00;49615.72;5054094;28;51373;-77
2021/10/24 02:25:06;;;;;;;;;13.50;12.25;;;;;-147.17;100.00;49637.38;5059627;28;51288;-78
2021/10/24 02:27:31;;;;;;;;;15.75;15.25;;;;;-147.17;100.00;49599.97;5056944;28;51197;-81
2021/10/24 02:29:56;;;;;;;;;14.50;13.25;;;;;-147.17;100.00;49635.41;5056685;28;51847;-81
2021/10/24 02:32:22;;;;;;;;;14.75;14.00;;;;;-147.17;100.00;49621.63;5050926;28;53528;-73
2021/10/24 02:34:48;;;;;;;;;13.50;13.50;;;;;-147.17;100.00;49627.53;5055521;28;51360;-78
2021/10/24 02:37:14;;;;;;;;;15.50;14.75;;;;;-147.17;100.00;49627.53;5051253;28;51267;-71
2021/10/24 02:39:39;;;;;;;;;14.00;11.00;;;;;-147.17;100.00;49605.88;5054060;28;52007;-75
2021/10/24 02:42:06;;;;;;;;;13.75;12.25;;;;;-147.17;100.00;49631.47;5025659;28;51491;-73
2021/10/24 02:44:32;;;;;;;;;23.50;21.50;;;;;-147.17;100.00;49605.88;5052991;28;51401;-77
2021/10/24 02:46:57;;;;;;;;;15.50;14.50;;;;;-147.17;100.00;49664.91;5061763;28;50797;-73
2021/10/24 02:49:23;;;;;;;;;10.50;10.25;;;;;-147.17;100.00;49659.03;5050121;28;52608;-72
2021/10/24 02:51:49;;;;;;;;;11.00;10.00;;;;;-147.17;100.00;49596.03;5052407;28;53656;-74
2021/10/24 02:54:15;;;;;;;;;13.25;13.25;;;;;-147.17;100.00;49607.84;5035255;28;51114;-74
2021/10/24 02:56:41;;;;;;;;;13.50;13.25;;;;;-147.17;100.00;49660.97;5056484;28;51506;-72
2021/10/24 02:59:07;;;;;;;;;12.25;11.50;;;;;-147.17;100.00;49678.69;5062117;28;51887;-77
2021/10/24 03:01:32;;;;;;;;;16.00;14.00;;;;;-147.17;100.00;49603.91;5050375;28;51262;-76
2021/10/24 03:03:57;;;;;;;;;12.25;12.25;;;;;-147.17;100.00;49572.41;5030905;28;51232;-74
2021/10/24 03:06:23;;;;;;;;;14.75;11.00;;;;;-147.17;100.00;49596.03;5043288;28;52738;-76
2021/10/24 03:08:48;;;;;;;;;11.50;11.00;;;;;-147.17;100.00;49615.72;5028895;28;55239;-78
2021/10/24 03:11:14;;;;;;;;;12.75;12.25;;;;;-147.17;100.00;49590.13;5058115;28;51388;-80
2021/10/24 03:13:39;;;;;;;;;9.00;8.75;;;;;-147.17;100.00;49619.66;5054160;28;51022;-79
2021/10/24 03:16:04;;;;;;;;;14.50;13.25;;;;;-147.17;100.00;49678.69;5055539;28;51210;-73
2021/10/24 03:18:30;;;;;;;;;11.00;10.25;;;;;-147.17;100.00;49631.47;5067313;28;51330;-76
2021/10/24 03:20:56;;;;;;;;;12.25;10.75;;;;;-147.17;100.00;49660.97;5061497;28;51362;-74
2021/10/24 03:23:21;;;;;;;;;11.00;11.00;;;;;-147.17;100.00;49607.84;5064323;28;52223;-74
2021/10/24 03:25:46;;;;;;;;;15.00;14.50;;;;;-147.17;100.00;49662.94;5059857;28;50960;-74
2021/10/24 03:28:12;;;;;;;;;11.50;11.00;;;;;-147.17;100.00;49599.97;5062582;28;50984;-74
2021/10/24 03:30:38;;;;;;;;;16.00;15.00;;;;;-147.17;100.00;49605.88;5054069;28;50960;-74
2021/10/24 03:33:03;;;;;;;;;10.50;10.50;;;;;-147.17;100.00;49586.19;5052351;28;51248;-74
2021/10/24 03:35:29;;;;;;;;;14.75;14.75;;;;;-147.17;100.00;49613.75;5034728;28;51346;-74
2021/10/24 03:37:54;;;;;;;;;14.25;11.75;;;;;-147.17;100.00;49657.06;5052316;28;51528;-74
2021/10/24 03:40:19;;;;;;;;;12.25;11.00;;;;;-147.17;100.00;49692.47;5066070;28;50840;-74
2021/10/24 03:42:45;;;;;;;;;13.75;12.25;;;;;-147.17;100.00;49599.97;5052642;28;51714;-74
2021/10/24 03:45:10;;;;;;;;;14.50;13.75;;;;;-147.17;100.00;49586.19;5052170;28;51240;-74
2021/10/24 03:47:37;;;;;;;;;13.00;12.25;;;;;-147.17;100.00;49609.81;5060501;28;51374;-74
2021/10/24 03:50:04;;;;;;;;;8.50;7.75;;;;;-147.17;100.00;49643.28;5071387;28;51001;-74
2021/10/24 03:52:29;;;;;;;;;12.00;12.00;;;;;-147.17;100.00;49631.47;5072376;28;51228;-74
2021/10/24 03:54:55;;;;;;;;;13.00;13.00;;;;;-147.17;100.00;49629.50;5072931;28;51153;-74
2021/10/24 03:57:20;;;;;;;;;13.75;11.25;;;;;-147.17;100.00;49623.59;5071933;28;52146;-74
2021/10/24 03:59:45;;;;;;;;;11.50;11.00;;;;;-147.17;100.00;49596.03;5052690;28;51028;-75
2021/10/24 04:02:11;;;;;;;;;15.00;13.75;;;;;-147.17;100.00;49625.56;5038763;28;51186;-74
2021/10/24 04:04:38;;;;;;;;;14.00;13.00;;;;;-147.17;100.00;49637.38;5064197;28;51133;-74
2021/10/24 04:07:04;;;;;;;;;15.75;14.75;;;;;-147.17;100.00;49564.53;5067609;28;52731;-74
2021/10/24 04:09:29;;;;;;;;;15.75;15.75;;;;;-147.17;100.00;49592.09;5070581;28;51440;-75
2021/10/24 04:11:54;;;;;;;;;15.00;14.00;;;;;-147.17;100.00;49619.66;5060053;28;50983;-73
2021/10/24 04:14:20;;;;;;;;;15.50;15.00;;;;;-147.17;100.00;49615.72;5052342;28;51241;-74
2021/10/24 04:16:45;;;;;;;;;14.00;14.00;;;;;-147.17;100.00;49596.03;5052038;28;51834;-74
2021/10/24 04:19:10;;;;;;;;;19.00;14.00;;;;;-147.17;100.00;49633.44;5043392;28;51193;-74
2021/10/24 04:21:36;;;;;;;;;19.50;19.00;;;;;-147.17;100.00;49623.59;5063105;28;50882;-75
2021/10/24 04:24:01;;;;;;;;;18.75;18.75;;;;;-147.17;100.00;49613.75;5054125;28;50922;-74
2021/10/24 04:26:27;;;;;;;;;16.75;16.00;;;;;-147.17;100.00;49596.03;5055881;28;53187;-75
2021/10/24 04:28:52;;;;;;;;;18.00;16.50;;;;;-147.17;100.00;49617.69;5069006;28;51235;-74
2021/10/24 04:31:19;;;;;;;;;16.00;15.25;;;;;-147.17;100.00;49596.03;5053118;28;51048;-74
2021/10/24 04:33:45;;;;;;;;;14.00;14.00;;;;;-147.17;100.00;49615.72;5037938;28;51110;-74
2021/10/24 04:36:11;;;;;;;;;18.75;16.25;;;;;-147.17;100.00;49635.41;5061763;28;51107;-74
2021/10/24 04:38:36;;;;;;;;;14.25;14.25;;;;;-147.17;100.00;49678.69;5055696;28;51209;-74
2021/10/24 04:41:02;;;;;;;;;13.00;13.00;;;;;-147.17;100.00;49641.31;5074948;28;51016;-75
2021/10/24 04:43:27;;;;;;;;;16.00;14.50;;;;;-147.17;100.00;49651.16;5075888;28;51390;-74
2021/10/24 04:45:53;;;;;;;;;14.50;14.50;;;;;-147.17;100.00;49645.25;5075331;28;51154;-74
2021/10/24 04:48:18;;;;;;;;;15.00;13.00;;;;;-147.17;100.00;49635.41;5075592;28;51044;-74
2021/10/24 04:50:44;;;;;;;;;16.75;16.25;;;;;-147.17;100.00;49692.47;5070547;28;51215;-74
2021/10/24 04:53:09;;;;;;;;;16.50;15.00;;;;;-147.17;100.00;49666.88;5037228;28;51253;-74
2021/10/24 04:55:35;;;;;;;;;13.75;13.00;;;;;-147.17;100.00;49753.50;5055546;28;51812;-73
2021/10/24 04:58:01;;;;;;;;;13.50;13.25;;;;;-147.17;100.00;49733.81;5045940;28;51107;-74
2021/10/24 05:00:27;;;;;;;;;15.50;14.00;;;;;-147.17;100.00;49672.78;5069580;28;51098;-74
2021/10/24 05:02:52;;;;;;;;;14.75;14.75;;;;;-147.17;100.00;49643.28;5056210;28;51291;-74
2021/10/24 05:05:18;;;;;;;;;14.25;14.25;;;;;-147.17;100.00;49659.03;5055660;28;51880;-74
2021/10/24 05:07:43;;;;;;;;;13.25;13.00;;;;;-147.17;100.00;49643.28;5045176;28;51001;-75
2021/10/24 05:10:10;;;;;;;;;14.00;13.00;;;;;-147.17;100.00;49627.53;5073936;28;51394;-74
2021/10/24 05:12:35;;;;;;;;;15.00;15.00;;;;;-147.17;100.00;49678.69;5056985;28;51042;-74
2021/10/24 05:15:01;;;;;;;;;17.50;16.50;;;;;-147.17;100.00;49682.63;5062292;28;51197;-74
2021/10/24 05:17:27;;;;;;;;;15.50;15.00;;;;;-147.17;100.00;49674.75;5056003;28;51121;-74
2021/10/24 05:19:52;;;;;;;;;18.25;15.50;;;;;-147.17;100.00;49635.41;5072917;28;51374;-74
2021/10/24 05:22:20;;;;;;;;;14.50;13.25;;;;;-147.17;100.00;49627.53;5075158;28;51145;-74
2021/10/24 05:24:45;;;;;;;;;15.25;15.25;;;;;-147.17;100.00;49698.38;5072587;28;51823;-74
2021/10/24 05:27:10;;;;;;;;;18.25;15.75;;;;;-147.17;100.00;49682.63;5059423;28;50991;-75
2021/10/24 05:29:36;;;;;;;;;18.75;15.75;;;;;-147.17;100.00;49659.03;5063692;28;51108;-75
2021/10/24 05:32:01;;;;;;;;;19.75;18.25;;;;;-147.17;100.00;49637.38;5074919;28;50895;-74
2021/10/24 05:34:26;;;;;;;;;17.75;16.00;;;;;-147.17;100.00;49647.22;5051701;28;51275;-74
2021/10/24 05:36:52;;;;;;;;;20.25;18.75;;;;;-147.17;100.00;49623.59;5063837;28;50939;-74
2021/10/24 05:39:18;;;;;;;;;15.50;14.75;;;;;-147.17;100.00;49635.41;5054713;28;51584;-74
2021/10/24 05:41:44;;;;;;;;;8.75;7.75;;;;;-147.17;100.00;49643.28;5065159;28;51084;-73
2021/10/24 05:44:09;;;;;;;;;15.00;15.00;;;;;-147.17;100.00;49605.88;5049246;28;52638;-74
2021/10/24 05:46:34;;;;;;;;;18.25;17.75;;;;;-147.17;100.00;49645.25;5054282;28;51393;-73
2021/10/24 05:49:01;;;;;;;;;18.75;18.00;;;;;-147.17;100.00;49659.03;5054870;28;51767;-74
2021/10/24 05:51:27;;;;;;;;;20.50;20.50;;;;;-147.17;100.00;49631.47;5075002;28;50998;-73
2021/10/24 05:53:52;;;;;;;;;20.50;19.75;;;;;-147.17;100.00;49615.72;5058911;28;51588;-74
2021/10/24 05:56:18;;;;;;;;;19.75;18.00;;;;;-147.17;100.00;49651.16;5074014;28;51012;-74
2021/10/24 05:58:43;;;;;;;;;14.00;13.25;;;;;-147.17;100.00;49670.81;5074335;28;50927;-74
2021/10/24 06:01:10;;;;;;;;;14.00;13.75;;;;;-147.17;100.00;49668.84;5067857;28;51054;-74
2021/10/24 06:03:35;;;;;;;;;16.50;16.50;;;;;-147.17;100.00;49664.91;5061995;28;51137;-74
2021/10/24 06:06:00;;;;;;;;;16.50;14.75;;;;;-147.17;100.00;49662.94;5060502;28;51092;-74
2021/10/24 06:08:27;;;;;;;;;12.75;12.75;;;;;-147.17;100.00;49651.16;5073030;28;51063;-74
2021/10/24 06:10:54;;;;;;;;;16.50;15.00;;;;;-147.17;100.00;49647.22;5070166;28;51308;-74
2021/10/24 06:13:21;;;;;;;;;19.50;19.50;;;;;-147.17;100.00;49637.38;5074099;28;51708;-74
2021/10/24 06:15:47;;;;;;;;;18.25;16.75;;;;;-147.17;100.00;49686.56;5073609;28;50991;-74
2021/10/24 06:18:13;;;;;;;;;18.00;17.50;;;;;-147.17;100.00;49670.81;5066678;28;51366;-74
2021/10/24 06:20:38;;;;;;;;;23.25;20.25;;;;;-147.17;100.00;49660.97;5066336;28;51210;-73
2021/10/24 06:23:04;;;;;;;;;19.75;17.75;;;;;-147.17;100.00;49666.88;5073618;28;50974;-74
2021/10/24 06:25:30;;;;;;;;;22.00;18.75;;;;;-147.17;100.00;49643.28;5071129;28;51232;-73
2021/10/24 06:27:55;;;;;;;;;14.25;13.50;;;;;-147.17;100.00;49698.38;5061683;28;51081;-74
2021/10/24 06:30:23;;;;;;;;;18.00;18.00;;;;;-147.17;100.00;49662.94;5063584;28;51748;-74
2021/10/24 06:32:52;;;;;;;;;14.25;14.00;;;;;-147.17;100.00;49694.44;5073872;28;51872;-74
2021/10/24 06:35:18;;;;;;;;;23.00;21.75;;;;;-147.17;100.00;49647.22;5074556;28;50969;-74
2021/10/24 06:37:45;;;;;;;;;17.75;16.75;;;;;-147.17;100.00;49688.53;5068797;28;51196;-74
2021/10/24 06:40:14;;;;;;;;;20.25;19.00;;;;;-147.17;100.00;49670.81;5066991;28;51329;-74
2021/10/24 06:42:40;;;;;;;;;17.50;15.75;;;;;-147.17;100.00;49680.66;5056482;28;52798;-74
2021/10/24 06:45:06;;;;;;;;;17.00;15.25;;;;;-147.17;100.00;49647.22;5053501;28;50992;-74
2021/10/24 06:47:32;;;;;;;;;18.50;17.25;;;;;-147.17;100.00;49706.25;5054097;28;51122;-74
2021/10/24 06:49:59;;;;;;;;;17.00;16.25;;;;;-147.17;100.00;49710.19;5042516;28;51234;-73
2021/10/24 06:52:24;;;;;;;;;17.00;17.00;;;;;-147.17;100.00;49682.63;5061427;28;51450;-73
2021/10/24 06:54:51;;;;;;;;;17.00;16.00;;;;;-147.17;100.00;49672.78;5053938;28;51027;-74
2021/10/24 06:57:16;;;;;;;;;14.00;13.50;;;;;-147.17;100.00;49672.78;5068761;28;51085;-74
2021/10/24 06:59:45;;;;;;;;;15.50;15.25;;;;;-147.17;100.00;49704.28;5061337;28;50962;-74
2021/10/24 07:02:10;;;;;;;;;16.00;14.75;;;;;-147.17;100.00;49733.81;5073030;28;51864;-73
2021/10/24 07:04:36;;;;;;;;;13.00;13.00;;;;;-147.17;100.00;49714.13;5054524;28;51032;-74
2021/10/24 07:07:01;;;;;;;;;16.75;15.75;;;;;-147.17;100.00;49696.41;5055432;28;51134;-73
2021/10/24 07:09:27;;;;;;;;;15.75;15.75;;;;;-147.17;100.00;49753.50;5042946;28;51345;-76
2021/10/24 07:11:52;;;;;;;;;18.50;17.75;;;;;-147.17;100.00;49698.38;5067136;28;51586;-76
2021/10/24 07:14:17;;;;;;;;;17.50;17.50;;;;;-147.17;100.00;49718.06;5052767;28;50967;-77
2021/10/24 07:16:43;;;;;;;;;14.50;14.00;;;;;-147.17;100.00;49716.09;5052460;28;51013;-76
2021/10/24 07:19:08;;;;;;;;;13.75;12.50;;;;;-147.17;100.00;49722.00;5053380;28;51152;-74
2021/10/24 07:21:34;;;;;;;;;16.00;16.00;;;;;-147.17;100.00;49720.03;5066341;28;50877;-76
2021/10/24 07:23:59;;;;;;;;;16.50;13.75;;;;;-147.17;100.00;49639.34;5064652;28;50940;-73
2021/10/24 07:26:25;;;;;;;;;14.00;13.75;;;;;-147.17;100.00;49706.25;5063977;28;53502;-73
2021/10/24 07:28:50;;;;;;;;;15.25;14.50;;;;;-147.17;100.00;49735.78;5062693;28;51197;-77
2021/10/24 07:31:16;;;;;;;;;18.00;16.75;;;;;-147.17;100.00;49729.88;5055969;28;51951;-75
2021/10/24 07:33:42;;;;;;;;;14.00;13.25;;;;;-147.17;100.00;49670.81;5068388;28;51149;-77
2021/10/24 07:36:07;;;;;;;;;18.50;17.25;;;;;-147.17;100.00;49682.63;5054889;28;51437;-74
2021/10/24 07:38:33;;;;;;;;;13.00;13.00;;;;;-147.17;100.00;49678.69;5074791;28;51413;-74
2021/10/24 07:41:00;;;;;;;;;13.50;13.50;;;;;-147.17;100.00;49680.66;5073116;28;51086;-75
2021/10/24 07:43:25;;;;;;;;;19.00;16.00;;;;;-147.17;100.00;49682.63;5036659;28;51173;-74
2021/10/24 07:45:51;;;;;;;;;14.00;14.00;;;;;-147.17;100.00;49733.81;5053718;28;51220;-76
2021/10/24 07:48:19;;;;;;;;;17.25;16.00;;;;;-147.17;100.00;49692.47;5054996;28;51098;-73
2021/10/24 07:50:45;;;;;;;;;14.75;13.00;;;;;-147.17;100.00;49678.69;5063694;28;51361;-75
2021/10/24 07:53:11;;;;;;;;;18.50;17.75;;;;;-147.17;100.00;49521.25;5060256;28;51083;-73
2021/10/24 07:55:37;;;;;;;;;14.00;13.00;;;;;-147.17;100.00;49363.78;5058946;28;50885;-73
2021/10/24 07:58:03;;;;;;;;;15.25;14.00;;;;;-147.17;100.00;49550.75;5054367;28;51485;-73
2021/10/24 08:00:28;;;;;;;;;17.00;14.75;;;;;-147.17;100.00;49576.34;5069639;28;52124;-73
2021/10/24 08:02:54;;;;;;;;;18.25;18.25;;;;;-147.17;100.00;49761.38;5068172;28;51264;-73
2021/10/24 08:05:19;;;;;;;;;15.00;15.00;;;;;-147.17;100.00;49800.72;5059123;28;51248;-72
2021/10/24 08:07:45;;;;;;;;;15.00;14.50;;;;;-147.17;100.00;49861.75;5056361;28;51392;-72
2021/10/24 08:10:11;;;;;;;;;17.50;17.00;;;;;-147.17;100.00;49806.63;5070770;28;52034;-73
2021/10/24 08:12:38;;;;;;;;;14.75;13.75;;;;;-147.17;100.00;49206.34;5068306;28;52806;-73
2021/10/24 08:15:05;;;;;;;;;15.00;15.00;;;;;-147.17;100.00;49710.19;5072033;28;51184;-72
2021/10/24 08:17:30;;;;;;;;;13.50;13.25;;;;;-147.17;100.00;49296.88;5064632;28;50866;-73
2021/10/24 08:19:56;;;;;;;;;17.00;17.00;;;;;-147.17;100.00;49312.63;5068607;28;51017;-73
2021/10/24 08:22:23;;;;;;;;;15.00;14.50;;;;;-147.17;100.00;49464.16;5070909;28;50951;-74
2021/10/24 08:24:48;;;;;;;;;9.25;9.25;;;;;-147.17;100.00;49231.94;5063288;28;51121;-74
2021/10/24 08:27:14;;;;;;;;;15.50;14.50;;;;;-147.17;100.00;49257.53;5059378;28;51370;-73
2021/10/24 08:29:40;;;;;;;;;12.00;12.00;;;;;-147.17;100.00;49131.56;5060887;28;52275;-75
2021/10/24 08:32:10;;;;;;;;;15.50;15.50;;;;;-147.17;100.00;48856.06;5060794;28;51161;-74
2021/10/24 08:34:39;;;;;;;;;17.75;16.25;;;;;-147.17;100.00;48659.28;5046960;28;50970;-76
2021/10/24 08:37:05;;;;;;;;;17.50;16.75;;;;;-147.17;100.00;48812.78;5063468;28;51159;-76
2021/10/24 08:39:31;;;;;;;;;16.67;15.67;;;;;-147.17;100.00;49159.13;5072641;28;51759;-73
2021/10/24 08:41:57;;;;;;;;;15.00;15.00;;;;;-147.17;100.00;49080.41;5072649;28;51182;-74
2021/10/24 08:44:24;;;;;;;;;16.33;15.67;;;;;-147.17;100.00;48838.34;5065625;28;51192;-76
2021/10/24 08:46:51;;;;;;;;;16.67;16.67;;;;;-147.17;100.00;49749.56;5070524;28;50867;-78
2021/10/24 08:49:16;;;;;;;;;13.67;13.67;;;;;-147.17;100.00;49645.25;5067772;28;51211;-77
2021/10/24 08:51:42;;;;;;;;;16.00;14.00;;;;;-147.17;100.00;49466.13;5065754;28;51142;-77
2021/10/24 08:54:08;;;;;;;;;14.33;14.33;;;;;-147.17;100.00;49458.25;5055891;28;51382;-67
2021/10/24 08:56:34;;;;;;;;;12.00;11.67;;;;;-147.17;100.00;49950.31;5071565;28;51259;-79
2021/10/24 08:59:00;;;;;;;;;17.33;16.67;;;;;-147.17;97.22;50178.66;5068468;28;51126;-74
2021/10/24 09:01:27;;;;;;;;;19.00;18.00;;;;;-147.17;100.00;49962.13;5058590;28;51283;-76
2021/10/24 09:04:08;;;;;;;;;14.25;14.25;;;;;-147.17;99.56;50147.16;5061888;28;51321;-76
2021/10/24 09:06:55;;;;;;;;;16.00;15.00;;;;;-147.17;100.00;49985.75;5059584;28;51353;-76
2021/10/24 09:09:35;;;;;;;;;17.00;17.00;;;;;-147.17;100.00;50064.50;5061698;28;52128;-75
2021/10/24 09:12:01;;;;;;;;;16.00;15.00;;;;;-147.17;100.00;50029.06;5066119;28;51139;-76
2021/10/24 09:14:49;;;;;;;;;16.33;16.33;;;;;-147.17;100.00;49968.03;5058227;28;51283;-76
2021/10/24 09:17:33;;;;;;;;;14.00;13.25;;;;;-147.17;100.00;49903.09;5062501;28;51287;-78
2021/10/24 09:20:06;;;;;;;;;11.00;11.00;;;;;-147.17;100.00;50088.13;5061358;28;51154;-77
2021/10/24 09:22:36;;;;;;;;;17.00;15.75;;;;;-147.17;100.00;49989.69;5071393;28;51006;-76
2021/10/24 09:25:19;;;;;;;;;18.75;17.50;;;;;-147.17;100.00;49997.56;5065293;28;51082;-76
2021/10/24 09:27:57;;;;;;;;;15.50;15.25;;;;;-147.17;100.00;49962.13;5058948;28;51527;-77
2021/10/24 09:30:30;;;;;;;;;16.00;15.75;;;;;-147.17;100.00;50015.28;5058964;28;51113;-75
2021/10/24 09:33:10;;;;;;;;;15.25;15.25;;;;;-147.17;100.00;49897.19;5043811;28;51163;-76
2021/10/24 09:35:40;;;;;;;;;19.00;17.25;;;;;-147.17;100.00;49859.78;5062468;28;51139;-76
2021/10/24 09:38:08;;;;;;;;;14.00;13.00;;;;;-147.17;100.00;49859.78;5066565;28;50990;-75
2021/10/24 09:40:40;;;;;;;;;16.00;16.00;;;;;-147.17;100.00;49867.66;5064967;28;51742;-76
2021/10/24 09:43:09;;;;;;;;;11.75;11.75;;;;;-147.17;100.00;49926.69;5042830;28;51156;-75
2021/10/24 09:45:34;;;;;;;;;14.25;14.25;;;;;-147.17;100.00;49944.41;5048079;28;51208;-75
2021/10/24 09:48:10;;;;;;;;;17.25;16.25;;;;;-147.17;100.00;50078.28;5062078;28;51384;-75
2021/10/24 09:50:39;;;;;;;;;17.00;16.00;;;;;-147.17;100.00;50135.34;5062785;28;51980;-74
2021/10/24 09:53:12;;;;;;;;;16.25;15.75;;;;;-147.17;100.00;50013.31;5053924;28;51174;-74
2021/10/24 09:55:42;;;;;;;;;15.00;14.25;;;;;-147.17;100.00;50109.75;5056969;28;51377;-74
2021/10/24 09:58:09;;;;;;;;;17.75;16.50;;;;;-147.17;100.00;50056.63;5070523;28;51294;-73
2021/10/24 10:00:36;;;;;;;;;13.00;13.00;;;;;-147.17;100.00;49966.06;5070921;28;51147;-74
2021/10/24 10:03:04;;;;;;;;;19.00;18.00;;;;;-147.17;100.00;49995.59;5073546;28;50970;-74
2021/10/24 10:05:30;;;;;;;;;16.00;16.00;;;;;-147.17;100.00;50005.44;5069595;28;51358;-74
2021/10/24 10:07:56;;;;;;;;;17.00;15.00;;;;;-147.17;100.00;49993.63;5067116;28;51073;-74
2021/10/24 10:10:24;;;;;;;;;13.25;12.75;;;;;-147.17;100.00;50088.13;5062197;28;51903;-73
2021/10/24 10:12:51;;;;;;;;;15.25;15.25;;;;;-147.17;100.00;50279.06;5054841;28;50939;-74
2021/10/24 10:15:20;;;;;;;;;18.00;17.75;;;;;-147.17;100.00;50162.91;5056377;28;50939;-73
2021/10/24 10:17:46;;;;;;;;;19.00;18.75;;;;;-147.17;100.00;50119.59;5059975;28;51148;-73
2021/10/24 10:20:24;;;;;;;;;16.75;16.75;;;;;-147.17;100.00;50103.84;5062394;28;51148;-73
2021/10/24 10:23:02;;;;;;;;;19.50;17.00;;;;;-147.17;100.00;50080.25;5052809;28;50955;-74
2021/10/24 10:25:30;;;;;;;;;16.75;16.50;;;;;-147.17;100.00;50007.41;5052471;28;51075;-73
2021/10/24 10:27:56;;;;;;;;;17.50;14.75;;;;;-147.17;100.00;49999.53;5057606;28;51251;-74
2021/10/24 10:30:40;;;;;;;;;16.33;15.00;;;;;-147.17;100.00;49971.97;5050120;28;52642;-73
2021/10/24 10:33:28;;;;;;;;;16.33;15.67;;;;;-147.17;100.00;50001.50;5052806;28;51075;-73
2021/10/24 10:35:55;;;;;;;;;18.00;17.33;;;;;-147.17;100.00;49859.78;5061389;28;51505;-73
2021/10/24 10:38:39;;;;;;;;;16.00;16.00;;;;;-147.17;100.00;49962.13;5054794;28;51360;-72
2021/10/24 10:41:08;;;;;;;;;16.00;15.33;;;;;-147.17;100.00;50111.72;5072435;28;51191;-73
2021/10/24 10:43:34;;;;;;;;;21.25;19.25;;;;;-147.17;100.00;50137.31;5073043;28;51032;-73
2021/10/24 10:46:05;;;;;;;;;22.25;20.50;;;;;-147.17;100.00;50084.19;5061420;28;51081;-72
2021/10/24 10:48:43;;;;;;;;;19.00;18.00;;;;;-147.17;100.00;50086.16;5052788;28;51307;-73
2021/10/24 10:51:24;;;;;;;;;17.50;17.50;;;;;-147.17;100.00;50107.78;5054247;28;51362;-73
2021/10/24 10:53:59;;;;;;;;;18.00;17.25;;;;;-147.17;100.00;50178.66;5058466;28;51194;-69